Time;durP1;ratioP1;P1;durP2;ratioP2;P2;SDS_P1;SDS_P2;PMS_P1;PMS_P2;Temp;Humidity;BMP_temperature;BMP_pressure;BME280_temperature;BME280_humidity;BME280_pressure;Samples;Min_cycle;Max_cycle;Signal;HPM_P1;HPM_P2
2022/12/21 00:01:30;;;;;;;0.00;0.00;;;;;;;5.41;100.00;99659.22;6209828;23;20090;-75
2022/12/21 00:04:01;;;;;;;0.10;0.10;;;;;;;5.42;100.00;99658.97;6179232;23;20015;-74
2022/12/21 00:06:30;;;;;;;0.00;0.00;;;;;;;5.49;100.00;99668.81;6211624;23;20340;-74
2022/12/21 00:08:57;;;;;;;0.00;0.00;;;;;;;5.48;100.00;99664.47;6209042;23;20004;-74
2022/12/21 00:11:24;;;;;;;0.00;0.00;;;;;;;5.50;100.00;99675.88;6180675;23;20340;-73
2022/12/21 00:13:54;;;;;;;0.00;0.00;;;;;;;5.41;100.00;99662.75;6208905;23;20000;-75
2022/12/21 00:16:22;;;;;;;0.00;0.00;;;;;;;5.41;100.00;99679.03;6179539;23;20004;-77
2022/12/21 00:19:23;;;;;;;;;;;;;;;;;;;;;
2022/12/21 00:21:51;;;;;;;0.00;0.00;;;;;;;5.21;100.00;99651.63;6209679;23;20095;-76
2022/12/21 00:24:19;;;;;;;0.00;0.00;;;;;;;5.06;100.00;99628.66;6156858;23;20015;-80
2022/12/21 00:26:45;;;;;;;0.00;0.00;;;;;;;5.01;100.00;99636.72;6180226;23;20009;-78
2022/12/21 00:29:10;;;;;;;0.00;0.00;;;;;;;5.00;100.00;99632.38;6182541;23;20062;-77
2022/12/21 00:31:39;;;;;;;0.00;0.00;;;;;;;5.02;100.00;99624.81;6153207;23;20091;-74
2022/12/21 00:34:04;;;;;;;0.00;0.00;;;;;;;5.10;100.00;99634.41;6208472;23;20043;-75
2022/12/21 00:36:30;;;;;;;0.00;0.00;;;;;;;5.05;100.00;99626.19;6179584;23;20004;-77
2022/12/21 00:39:05;;;;;;;0.00;0.00;;;;;;;4.99;100.00;99628.00;6204591;23;20059;-75
2022/12/21 00:41:40;;;;;;;0.00;0.00;;;;;;;4.94;100.00;99622.53;6156707;23;20264;-75
2022/12/21 00:44:06;;;;;;;0.00;0.00;;;;;;;5.07;100.00;99646.56;6178951;23;20009;-74
2022/12/21 00:46:33;;;;;;;0.00;0.00;;;;;;;5.04;100.00;99647.06;6182228;23;20076;-73
2022/12/21 00:49:11;;;;;;;0.00;0.00;;;;;;;4.98;100.00;99637.22;6209111;23;20000;-75
2022/12/21 00:52:11;;;;;;;0.00;0.00;;;;;;;5.03;100.00;99623.72;6181987;23;20080;-76
2022/12/21 01:05:59;;;;;;;0.00;0.00;;;;;;;5.19;100.00;99638.31;6001548;23;20052;-76
2022/12/21 01:08:27;;;;;;;0.00;0.00;;;;;;;5.15;100.00;99620.91;6013905;23;20067;-76
2022/12/21 01:11:03;;;;;;;0.00;0.00;;;;;;;5.18;100.00;99622.31;6119184;23;20041;-77
2022/12/21 01:13:33;;;;;;;0.00;0.00;;;;;;;5.18;100.00;99619.59;6116086;23;20043;-76
2022/12/21 01:15:59;;;;;;;0.00;0.00;;;;;;;5.27;100.00;99623.53;6094804;23;20029;-76
2022/12/21 01:18:27;;;;;;;0.05;0.05;;;;;;;5.22;100.00;99609.91;6092668;23;20002;-77
2022/12/21 01:20:54;;;;;;;0.00;0.00;;;;;;;5.36;100.00;99632.88;6120524;23;20010;-77
2022/12/21 01:23:20;;;;;;;0.00;0.00;;;;;;;5.32;100.00;99607.31;6118584;23;20006;-76
2022/12/21 01:25:55;;;;;;;0.00;0.00;;;;;;;5.37;100.00;99610.13;6170930;23;20009;-77
2022/12/21 01:28:20;;;;;;;;;;;;;;;5.49;100.00;99625.44;6185705;23;20437;-77
2022/12/21 01:30:51;;;;;;;0.00;0.00;;;;;;;5.45;100.00;99608.00;6212876;23;19912;-76
2022/12/21 01:33:19;;;;;;;0.00;0.00;;;;;;;5.57;100.00;99620.38;6158222;23;20093;-76
2022/12/21 01:35:49;;;;;;;0.00;0.00;;;;;;;5.68;100.00;99624.06;6183453;23;20000;-77
2022/12/21 01:38:23;;;;;;;0.00;0.00;;;;;;;5.65;100.00;99608.28;6187068;23;20363;-78
2022/12/21 01:40:51;;;;;;;;;;;;;;;5.83;100.00;99619.88;6184187;23;20070;-78
2022/12/21 01:43:38;;;;;;;0.00;0.00;;;;;;;5.76;100.00;99598.38;6185751;23;19904;-76
2022/12/21 01:46:31;;;;;;;0.00;0.00;;;;;;;5.87;100.00;99602.00;6185565;23;20083;-77
2022/12/21 01:49:26;;;;;;;0.00;0.00;;;;;;;5.91;100.00;99611.28;6155651;23;20000;-75
2022/12/21 01:52:14;;;;;;;0.00;0.00;;;;;;;5.74;100.00;99582.34;6183629;23;20382;-77
2022/12/21 01:54:47;;;;;;;0.00;0.00;;;;;;;5.79;100.00;99602.47;6187486;23;20092;-78
2022/12/21 01:57:14;;;;;;;0.00;0.00;;;;;;;5.67;100.00;99581.72;6180848;23;20058;-77
2022/12/21 01:59:58;;;;;;;0.00;0.00;;;;;;;5.70;100.00;99581.22;6186108;23;20079;-78
2022/12/21 02:02:31;;;;;;;0.00;0.00;;;;;;;5.77;100.00;99581.03;6180987;23;20008;-77
2022/12/21 02:05:18;;;;;;;0.00;0.00;;;;;;;5.85;100.00;99585.16;6185613;23;20427;-77
2022/12/21 02:07:44;;;;;;;0.10;0.10;;;;;;;5.87;100.00;99583.00;6178554;23;20096;-77
2022/12/21 02:10:10;;;;;;;0.00;0.00;;;;;;;5.91;100.00;99595.00;6183818;23;20004;-76
2022/12/21 02:12:37;;;;;;;0.00;0.00;;;;;;;5.98;100.00;99601.06;6178256;23;20009;-76
2022/12/21 02:15:03;;;;;;;0.00;0.00;;;;;;;6.04;100.00;99605.47;6210909;23;20084;-78
2022/12/21 02:17:52;;;;;;;0.00;0.00;;;;;;;6.16;100.00;99623.50;6156043;23;20047;-77
2022/12/21 02:20:57;;;;;;;0.00;0.00;;;;;;;6.18;100.00;99611.31;6208282;23;20489;-75
2022/12/21 02:23:23;;;;;;;;;;;;;;;6.23;100.00;99610.53;6211224;23;20028;-75
2022/12/21 02:26:10;;;;;;;0.00;0.00;;;;;;;6.26;100.00;99605.44;6182517;23;19903;-75
2022/12/21 02:29:03;;;;;;;0.00;0.00;;;;;;;6.32;100.00;99610.88;6210479;23;20052;-77
2022/12/21 02:31:34;;;;;;;0.00;0.00;;;;;;;6.36;100.00;99604.69;6183980;23;20020;-76
2022/12/21 02:34:09;;;;;;;0.00;0.00;;;;;;;6.36;100.00;99607.41;6184524;23;20086;-74
2022/12/21 02:36:54;;;;;;;0.10;0.10;;;;;;;6.36;100.00;99601.97;6213069;23;20011;-76
2022/12/21 02:39:51;;;;;;;0.00;0.00;;;;;;;6.33;100.00;99601.69;6182836;23;20587;-76
2022/12/21 02:45:20;;;;;;;0.00;0.00;;;;;;;6.19;100.00;99593.13;6211070;23;20011;-77
2022/12/21 02:47:52;;;;;;;0.00;0.00;;;;;;;6.10;100.00;99593.59;6211804;23;20071;-77
2022/12/21 02:50:26;;;;;;;0.00;0.00;;;;;;;6.00;100.00;99593.50;6179356;23;20083;-76
2022/12/21 02:52:59;;;;;;;0.00;0.00;;;;;;;5.95;100.00;99590.69;6213339;23;20083;-77
2022/12/21 02:55:26;;;;;;;0.00;0.00;;;;;;;5.87;100.00;99594.69;6182667;23;20011;-76
2022/12/21 02:58:12;;;;;;;0.00;0.00;;;;;;;5.89;100.00;99594.44;6212445;23;20083;-76
2022/12/21 03:00:49;;;;;;;0.00;0.00;;;;;;;5.88;100.00;99581.94;6185010;23;20487;-78
2022/12/21 03:03:48;;;;;;;0.00;0.00;;;;;;;5.92;100.00;99591.22;6180851;23;20051;-76
2022/12/21 03:06:31;;;;;;;0.00;0.00;;;;;;;5.86;100.00;99593.03;6186581;23;20000;-76
2022/12/21 03:09:28;;;;;;;0.00;0.00;;;;;;;5.84;100.00;99583.50;6188084;23;20063;-77
2022/12/21 03:12:02;;;;;;;0.00;0.00;;;;;;;5.81;100.00;99584.88;6187199;23;20004;-76
2022/12/21 03:14:36;;;;;;;0.00;0.00;;;;;;;5.77;100.00;99579.13;6187397;23;20012;-76
2022/12/21 03:17:21;;;;;;;0.00;0.00;;;;;;;5.89;100.00;99578.97;6213215;23;20008;-76
2022/12/21 03:19:55;;;;;;;0.00;0.00;;;;;;;5.97;100.00;99571.44;6187471;23;20040;-76
2022/12/21 03:22:47;;;;;;;0.00;0.00;;;;;;;6.07;100.00;99572.38;6184898;23;20001;-77
2022/12/21 03:25:42;;;;;;;0.00;0.00;;;;;;;6.04;100.00;99578.31;6187702;23;20000;-76
2022/12/21 03:28:13;;;;;;;0.00;0.00;;;;;;;5.97;100.00;99583.13;6213267;23;20051;-75
2022/12/21 03:30:42;;;;;;;0.00;0.00;;;;;;;5.87;100.00;99583.00;6185465;23;20008;-76
2022/12/21 03:33:14;;;;;;;0.00;0.00;;;;;;;5.76;100.00;99582.09;6181273;23;20446;-76
2022/12/21 03:35:46;;;;;;;0.00;0.00;;;;;;;5.71;100.00;99582.84;6210476;23;20000;-76
2022/12/21 03:38:24;;;;;;;0.00;0.00;;;;;;;5.68;100.00;99596.94;6173957;23;20008;-75
2022/12/21 03:40:55;;;;;;;0.00;0.00;;;;;;;5.64;100.00;99584.94;6184409;23;20411;-75
2022/12/21 03:43:26;;;;;;;0.10;0.10;;;;;;;5.62;100.00;99587.06;6181306;23;20000;-76
2022/12/21 03:45:57;;;;;;;0.00;0.00;;;;;;;5.60;100.00;99590.03;6184185;23;20008;-76
2022/12/21 03:48:26;;;;;;;0.00;0.00;;;;;;;5.52;100.00;99581.53;6180426;23;20035;-76
2022/12/21 03:50:59;;;;;;;0.00;0.00;;;;;;;5.43;100.00;99562.16;6183096;23;20103;-76
2022/12/21 03:53:37;;;;;;;0.00;0.00;;;;;;;5.44;100.00;99563.00;6179780;23;20310;-76
2022/12/21 03:56:07;;;;;;;0.00;0.00;;;;;;;5.45;100.00;99559.19;6186571;23;20015;-75
2022/12/21 03:58:34;;;;;;;0.00;0.00;;;;;;;5.42;100.00;99561.38;6206356;23;20038;-76
2022/12/21 04:01:30;;;;;;;0.00;0.00;;;;;;;5.36;100.00;99551.53;6185149;23;20420;-76
2022/12/21 04:04:02;;;;;;;0.00;0.00;;;;;;;5.35;100.00;99551.78;6181410;23;20051;-76
2022/12/21 04:06:33;;;;;;;0.00;0.00;;;;;;;5.34;100.00;99548.25;6212147;23;19992;-77
2022/12/21 04:08:59;;;;;;;0.00;0.00;;;;;;;5.40;100.00;99555.38;6180052;23;20000;-77
2022/12/21 04:14:08;;;;;;;0.00;0.00;;;;;;;5.42;100.00;99533.44;6164090;23;20016;-75
2022/12/21 04:16:33;;;;;;;0.00;0.00;;;;;;;5.54;100.00;99542.25;6136223;23;20013;-75
2022/12/21 04:21:50;;;;;;;0.00;0.00;;;;;;;5.59;100.00;99536.88;6143817;23;20035;-76
2022/12/21 04:29:44;;;;;;;0.00;0.00;;;;;;;5.83;100.00;99522.19;6167547;23;20343;-75
2022/12/21 04:32:10;;;;;;;0.00;0.00;;;;;;;5.84;100.00;99529.25;6155644;23;20032;-75
2022/12/21 04:34:35;;;;;;;0.00;0.00;;;;;;;5.68;100.00;99520.97;6157547;23;20019;-75
2022/12/21 04:39:44;;;;;;;0.00;0.00;;;;;;;5.58;100.00;99523.59;6184301;23;20083;-75
2022/12/21 04:42:10;;;;;;;0.00;0.00;;;;;;;5.64;100.00;99517.13;6140502;23;20013;-75
2022/12/21 04:44:35;;;;;;;0.00;0.00;;;;;;;5.73;100.00;99522.91;6154240;23;20127;-76
2022/12/21 04:47:00;;;;;;;0.00;0.00;;;;;;;5.72;100.00;99515.84;6135861;23;20027;-75
2022/12/21 04:49:26;;;;;;;0.00;0.00;;;;;;;5.71;100.00;99515.03;6182268;23;20005;-75
2022/12/21 04:51:51;;;;;;;0.00;0.00;;;;;;;5.74;100.00;99517.22;6155501;23;20004;-75
2022/12/21 04:54:17;;;;;;;0.00;0.00;;;;;;;5.66;100.00;99514.97;6208543;23;20013;-75
2022/12/21 04:56:43;;;;;;;0.00;0.00;;;;;;;5.64;100.00;99509.00;6129925;23;20013;-76
2022/12/21 04:59:08;;;;;;;0.00;0.00;;;;;;;5.58;100.00;99493.75;6131723;23;20013;-75
2022/12/21 05:01:33;;;;;;;0.00;0.00;;;;;;;5.61;100.00;99504.09;6158425;23;20016;-77
2022/12/21 05:03:59;;;;;;;0.00;0.00;;;;;;;5.65;100.00;99510.63;6158021;23;20013;-76
2022/12/21 05:06:24;;;;;;;0.00;0.00;;;;;;;5.63;100.00;99501.91;6184635;23;20004;-74
2022/12/21 05:08:50;;;;;;;0.00;0.00;;;;;;;5.63;100.00;99501.13;6155995;23;20012;-76
2022/12/21 05:11:17;;;;;;;0.00;0.00;;;;;;;5.68;100.00;99507.41;6135378;23;20335;-76
2022/12/21 05:13:46;;;;;;;0.00;0.00;;;;;;;5.68;100.00;99495.72;6207977;23;20000;-76
2022/12/21 05:16:17;;;;;;;0.00;0.00;;;;;;;5.77;100.00;99496.91;6185245;23;20554;-75
2022/12/21 05:18:44;;;;;;;0.00;0.00;;;;;;;5.76;100.00;99479.81;6181523;23;20008;-77
2022/12/21 05:21:09;;;;;;;0.00;0.00;;;;;;;5.72;100.00;99473.28;6186170;23;20483;-76
2022/12/21 05:23:35;;;;;;;0.00;0.00;;;;;;;5.80;100.00;99488.25;6160366;23;20009;-74
2022/12/21 05:26:02;;;;;;;0.00;0.00;;;;;;;5.79;100.00;99483.91;6208756;23;20327;-75
2022/12/21 05:28:29;;;;;;;0.00;0.00;;;;;;;5.80;100.00;99473.84;6211645;23;20067;-76
2022/12/21 05:30:54;;;;;;;0.00;0.00;;;;;;;5.77;100.00;99469.78;6182796;23;20064;-76
2022/12/21 05:33:20;;;;;;;0.00;0.00;;;;;;;5.88;100.00;99486.97;6185889;23;20009;-77
2022/12/21 05:35:47;;;;;;;0.00;0.00;;;;;;;5.81;100.00;99480.94;6159540;23;20013;-76
2022/12/21 05:38:13;;;;;;;0.00;0.00;;;;;;;5.76;100.00;99477.09;6183295;23;20008;-75
2022/12/21 05:40:38;;;;;;;0.00;0.00;;;;;;;5.86;100.00;99495.34;6157959;23;20351;-77
2022/12/21 05:43:05;;;;;;;0.03;0.03;;;;;;;5.90;100.00;99501.09;6132240;23;20067;-77
2022/12/21 05:45:31;;;;;;;0.00;0.00;;;;;;;5.97;100.00;99492.75;6133553;23;20059;-76
2022/12/21 05:47:56;;;;;;;0.00;0.00;;;;;;;6.02;100.00;99493.63;6181155;23;20424;-77
2022/12/21 05:50:22;;;;;;;0.00;0.00;;;;;;;6.09;100.00;99474.44;6184350;23;20012;-77
2022/12/21 05:52:48;;;;;;;0.00;0.00;;;;;;;6.36;100.00;99496.06;6183614;23;20016;-76
2022/12/21 05:55:14;;;;;;;0.00;0.00;;;;;;;6.56;100.00;99491.84;6182010;23;20340;-76
2022/12/21 05:57:39;;;;;;;0.00;0.00;;;;;;;6.62;100.00;99496.22;6133441;23;20423;-79
2022/12/21 06:00:05;;;;;;;0.00;0.00;;;;;;;6.57;100.00;99493.47;6132929;23;20098;-76
2022/12/21 06:02:31;;;;;;;0.00;0.00;;;;;;;6.42;100.00;99476.00;6185200;23;20446;-76
2022/12/21 06:04:56;;;;;;;0.03;0.03;;;;;;;6.34;100.00;99481.94;6160717;23;20004;-77
2022/12/21 06:07:22;;;;;;;0.00;0.00;;;;;;;6.22;100.00;99462.28;6159666;23;20008;-76
2022/12/21 06:09:47;;;;;;;0.00;0.00;;;;;;;6.21;100.00;99466.91;6159987;23;20074;-76
2022/12/21 06:12:14;;;;;;;0.00;0.00;;;;;;;6.24;100.00;99468.28;6156799;23;20013;-76
2022/12/21 06:14:39;;;;;;;0.00;0.00;;;;;;;6.33;100.00;99469.44;6160715;23;20159;-76
2022/12/21 06:17:05;;;;;;;0.00;0.00;;;;;;;6.42;100.00;99475.19;6132769;23;20064;-75
2022/12/21 06:19:30;;;;;;;0.00;0.00;;;;;;;6.45;100.00;99470.06;6134726;23;20012;-75
2022/12/21 06:21:56;;;;;;;0.00;0.00;;;;;;;6.56;100.00;99481.81;6157207;23;20009;-77
2022/12/21 06:24:21;;;;;;;0.00;0.00;;;;;;;6.63;100.00;99476.97;6184260;23;20012;-76
2022/12/21 06:26:47;;;;;;;0.00;0.00;;;;;;;6.68;100.00;99467.19;6183149;23;20391;-76
2022/12/21 06:29:12;;;;;;;0.00;0.00;;;;;;;6.75;100.00;99467.78;6183017;23;20013;-76
2022/12/21 06:31:38;;;;;;;0.00;0.00;;;;;;;6.79;100.00;99469.69;6181992;23;20416;-76
2022/12/21 06:34:03;;;;;;;0.00;0.00;;;;;;;6.78;100.00;99462.63;6153990;23;20012;-76
2022/12/21 06:36:30;;;;;;;0.00;0.00;;;;;;;6.78;100.00;99470.78;6132418;23;20096;-76
2022/12/21 06:38:56;;;;;;;0.00;0.00;;;;;;;6.78;100.00;99462.63;6152403;23;20029;-74
2022/12/21 06:41:21;;;;;;;0.00;0.00;;;;;;;6.81;100.00;99461.28;6181718;23;20063;-76
2022/12/21 06:43:47;;;;;;;0.00;0.00;;;;;;;6.82;100.00;99463.75;6158026;23;20012;-75
2022/12/21 06:46:15;;;;;;;0.00;0.00;;;;;;;6.81;100.00;99456.66;6155231;23;20008;-75
2022/12/21 06:48:42;;;;;;;0.00;0.00;;;;;;;6.79;100.00;99445.25;6159268;23;20080;-75
2022/12/21 06:51:13;;;;;;;0.00;0.00;;;;;;;6.87;100.00;99453.97;6181405;23;20024;-76
2022/12/21 06:53:41;;;;;;;0.00;0.00;;;;;;;6.92;100.00;99454.81;6180558;23;20008;-75
2022/12/21 06:56:07;;;;;;;0.00;0.00;;;;;;;6.95;100.00;99456.16;6184087;23;20874;-76
2022/12/21 06:58:34;;;;;;;0.00;0.00;;;;;;;6.94;100.00;99443.69;6181509;23;20012;-76
2022/12/21 07:01:08;;;;;;;0.00;0.00;;;;;;;7.08;100.00;99454.88;6158406;23;20012;-75
2022/12/21 07:03:34;;;;;;;0.00;0.00;;;;;;;7.18;100.00;99459.53;6181664;23;20009;-78
2022/12/21 07:06:00;;;;;;;0.00;0.00;;;;;;;7.25;100.00;99462.81;6160989;23;20076;-78
2022/12/21 07:08:26;;;;;;;0.10;0.10;;;;;;;7.28;100.00;99465.00;6162824;23;20557;-78
2022/12/21 07:10:56;;;;;;;0.00;0.00;;;;;;;7.34;100.00;99453.03;6186708;23;20091;-77
2022/12/21 07:13:21;;;;;;;0.00;0.00;;;;;;;7.37;100.00;99455.22;6158240;23;20016;-76
2022/12/21 07:15:47;;;;;;;0.00;0.00;;;;;;;7.30;100.00;99449.22;6157140;23;20009;-76
2022/12/21 07:18:12;;;;;;;0.00;0.00;;;;;;;7.28;100.00;99454.13;6156783;23;20016;-76
2022/12/21 07:20:38;;;;;;;0.00;0.00;;;;;;;7.28;100.00;99465.81;6160893;23;20031;-77
2022/12/21 07:23:04;;;;;;;0.00;0.00;;;;;;;7.22;100.00;99455.19;6160503;23;20009;-78
2022/12/21 07:25:30;;;;;;;0.00;0.00;;;;;;;7.22;100.00;99450.56;6210946;23;20000;-77
2022/12/21 07:27:56;;;;;;;0.00;0.00;;;;;;;7.18;100.00;99443.22;6182049;23;20063;-76
2022/12/21 07:30:22;;;;;;;0.00;0.00;;;;;;;7.22;100.00;99453.28;6160535;23;20020;-76
2022/12/21 07:32:47;;;;;;;0.00;0.00;;;;;;;7.18;100.00;99437.78;6158304;23;20008;-76
2022/12/21 07:35:13;;;;;;;0.00;0.00;;;;;;;7.28;100.00;99459.56;6159958;23;20454;-77
2022/12/21 07:37:38;;;;;;;0.00;0.00;;;;;;;7.33;100.00;99451.44;6134287;23;20347;-75
2022/12/21 07:40:07;;;;;;;0.00;0.00;;;;;;;7.32;100.00;99461.47;6182542;23;20085;-78
2022/12/21 07:42:32;;;;;;;0.00;0.00;;;;;;;7.37;100.00;99462.56;6158909;23;20440;-77
2022/12/21 07:44:58;;;;;;;0.00;0.00;;;;;;;7.42;100.00;99459.88;6178862;23;19997;-78
2022/12/21 07:47:30;;;;;;;0.00;0.00;;;;;;;7.37;100.00;99474.25;6184256;23;20009;-77
2022/12/21 07:49:57;;;;;;;0.00;0.00;;;;;;;7.40;100.00;99460.13;6155524;23;20096;-75
2022/12/21 07:53:00;;;;;;;;;;;;;;;;;;;;;
2022/12/21 07:55:33;;;;;;;0.00;0.00;;;;;;;7.28;100.00;99454.13;6111168;23;20087;-82
2022/12/21 08:02:18;;;;;;;0.00;0.00;;;;;;;7.36;100.00;99467.19;6212882;23;20019;-81
2022/12/21 08:04:46;;;;;;;0.00;0.00;;;;;;;7.42;100.00;99466.13;6184212;23;20453;-77
2022/12/21 08:14:34;;;;;;;0.00;0.00;;;;;;;7.52;100.00;99487.09;5976389;24;20184;-78
2022/12/21 08:17:28;;;;;;;;;;;;;;;7.51;100.00;99475.38;6005583;23;20011;-78
2022/12/21 08:20:03;;;;;;;0.00;0.00;;;;;;;7.39;100.00;99460.38;6181366;23;19952;-74
2022/12/21 08:22:42;;;;;;;0.00;0.00;;;;;;;7.57;100.00;99478.94;6181901;23;20092;-78
2022/12/21 08:28:17;;;;;;;0.00;0.00;;;;;;;7.62;100.00;99475.41;6184796;23;20047;-80
2022/12/21 08:30:45;;;;;;;0.00;0.00;;;;;;;7.54;100.00;99467.78;6183580;23;20387;-79
2022/12/21 08:33:13;;;;;;;0.00;0.00;;;;;;;7.41;100.00;99460.97;6160500;23;20059;-79
2022/12/21 08:35:49;;;;;;;0.00;0.00;;;;;;;7.40;100.00;99460.13;6160228;23;20034;-78
2022/12/21 08:38:17;;;;;;;0.08;0.08;;;;;;;7.29;100.00;99450.31;6186051;23;20039;-79
2022/12/21 08:40:45;;;;;;;0.00;0.00;;;;;;;7.23;100.00;99445.94;6155992;23;20017;-79
2022/12/21 08:43:10;;;;;;;0.00;0.00;;;;;;;7.28;100.00;99459.56;6184395;23;20020;-78
2022/12/21 08:45:38;;;;;;;0.00;0.00;;;;;;;7.19;100.00;99450.28;6185688;23;20008;-79
2022/12/21 08:48:08;;;;;;;0.00;0.00;;;;;;;7.12;100.00;99443.19;6135459;23;20097;-79
2022/12/21 08:53:38;;;;;;;0.10;0.10;;;;;;;7.12;100.00;99445.91;6060380;23;20370;-79
2022/12/21 08:59:57;;;;;;;0.00;0.00;;;;;;;7.20;100.00;99430.16;6106623;23;20028;-80
2022/12/21 09:02:39;;;;;;;;;;;;;;;;;;;;;
2022/12/21 09:06:06;;;;;;;;;;;;;;;;;;;;;
2022/12/21 09:12:56;;;;;;;;;;;;;;;;;;;;;
2022/12/21 09:19:57;;;;;;;;;;;;;;;;;;;;;
2022/12/21 09:23:14;;;;;;;;;;;;;;;;;;;;;
2022/12/21 09:26:48;;;;;;;;;;;;;;;;;;;;;
2022/12/21 09:29:22;;;;;;;0.08;0.08;;;;;;;7.68;100.00;99430.78;6003219;23;20121;-80
2022/12/21 09:45:43;;;;;;;0.00;0.00;;;;;;;8.10;100.00;99437.84;5959486;23;20059;-79
2022/12/21 09:52:17;;;;;;;;;;;;;;;;;;;;;
2022/12/21 09:55:05;;;;;;;0.00;0.00;;;;;;;14.49;100.00;99468.53;6114932;23;20064;-81
2022/12/21 10:01:28;;;;;;;0.00;0.00;;;;;;;16.66;100.00;99438.78;6071822;23;20031;-80
2022/12/21 10:04:16;;;;;;;;;;;;;;;;;;;;;
2022/12/21 10:18:23;;;;;;;0.00;0.00;;;;;;;22.99;99.97;99463.00;5924684;24;20074;-81
2022/12/21 10:21:31;;;;;;;0.00;0.00;;;;;;;24.77;92.25;99462.09;5914371;23;20188;-79
2022/12/21 10:24:17;;;;;;;0.00;0.00;;;;;;;25.68;88.05;99446.75;6077765;23;20741;-80
2022/12/21 10:26:58;;;;;;;0.00;0.00;;;;;;;27.07;87.03;99450.28;6191187;23;20431;-79
2022/12/21 10:29:49;;;;;;;0.00;0.00;;;;;;;27.36;79.27;99467.13;6190120;23;20004;-80
2022/12/21 10:32:38;;;;;;;;;;;;;;;;;;;;;
2022/12/21 10:35:51;;;;;;;0.00;0.00;;;;;;;30.07;75.12;99464.81;6214287;23;20056;-81
2022/12/21 10:38:29;;;;;;;0.00;0.00;;;;;;;26.59;77.33;99432.66;6132150;23;20004;-79
2022/12/21 10:41:45;;;;;;;;;;;;;;;;;;;;;
2022/12/21 10:44:13;;;;;;;0.00;0.00;;;;;;;24.15;87.81;99448.69;6183140;23;20103;-81
2022/12/21 10:47:22;;;;;;;0.00;0.00;;;;;;;21.29;96.75;99436.63;6156056;23;20016;-80
2022/12/21 10:50:11;;;;;;;0.00;0.00;;;;;;;19.27;100.00;99458.09;6143835;23;20009;-81
2022/12/21 10:53:29;;;;;;;0.00;0.00;;;;;;;17.85;100.00;99424.03;6158576;23;20008;-84
2022/12/21 10:56:06;;;;;;;0.00;0.00;;;;;;;17.59;100.00;99438.88;6111114;23;20017;-82
2022/12/21 10:58:55;;;;;;;;;;;;;;;;;;;;;
2022/12/21 11:02:56;;;;;;;;;;;;;;;;;;;;;
2022/12/21 11:08:56;;;;;;;0.00;0.00;;;;;;;18.02;100.00;99444.41;6097842;23;20014;-80
2022/12/21 11:15:25;;;;;;;;;;;;;;;;;;;;;
2022/12/21 11:20:50;;;;;;;0.00;0.00;;;;;;;17.30;100.00;99403.03;6167978;23;20020;-80
2022/12/21 11:23:19;;;;;;;0.00;0.00;;;;;;;17.55;100.00;99392.91;6161262;23;20516;-81
2022/12/21 11:26:52;;;;;;;0.00;0.00;;;;;;;17.19;100.00;99416.44;6158744;23;20064;-81
2022/12/21 11:29:46;;;;;;;0.00;0.00;;;;;;;16.31;100.00;99385.63;6172758;23;20107;-83
2022/12/21 11:33:12;;;;;;;;;;;;;;;;;;;;;
2022/12/21 11:35:30;;;;;;;0.00;0.00;;;;;;;14.58;100.00;99405.31;6161762;23;20023;-81
2022/12/21 11:38:21;;;;;;;0.00;0.00;;;;;;;13.93;100.00;99418.53;6161600;23;20146;-81
2022/12/21 11:45:06;;;;;;;;;;;;;;;;;;;;;
2022/12/21 11:47:53;;;;;;;0.00;0.00;;;;;;;12.51;100.00;99384.59;6160806;23;20017;-82
2022/12/21 11:50:53;;;;;;;0.00;0.00;;;;;;;12.60;100.00;99389.34;6061175;23;20006;-82
2022/12/21 11:54:02;;;;;;;;;;;;;;;;;;;;;
2022/12/21 11:57:26;;;;;;;0.00;0.00;;;;;;;12.69;100.00;99393.81;6099700;23;20034;-81
2022/12/21 12:00:04;;;;;;;0.00;0.00;;;;;;;12.54;100.00;99367.53;6093534;23;20478;-81
2022/12/21 12:06:36;;;;;;;0.00;0.00;;;;;;;13.60;100.00;99383.09;6010081;23;20019;-81
2022/12/21 12:09:42;;;;;;;0.08;0.08;;;;;;;13.75;100.00;99379.94;6037694;23;20022;-81
2022/12/21 12:12:37;;;;;;;0.00;0.00;;;;;;;13.93;100.00;99380.06;6067281;23;20030;-82
2022/12/21 12:15:27;;;;;;;;;;;;;;;;;;;;;
2022/12/21 12:22:17;;;;;;;0.00;0.00;;;;;;;13.52;100.00;99361.84;5972622;23;20109;-81
2022/12/21 12:25:23;;;;;;;0.00;0.00;;;;;;;13.27;100.00;99366.78;6042397;23;20026;-81
2022/12/21 12:29:26;;;;;;;0.00;0.00;;;;;;;13.05;100.00;99329.97;6108489;23;20008;-82
2022/12/21 12:32:16;;;;;;;0.00;0.00;;;;;;;13.25;100.00;99352.56;6022530;23;20502;-82
2022/12/21 12:35:12;;;;;;;0.00;0.00;;;;;;;13.31;100.00;99329.34;6019192;23;20011;-83
2022/12/21 12:37:58;;;;;;;0.00;0.00;;;;;;;13.77;100.00;99344.75;6018540;23;20018;-82
2022/12/21 12:41:24;;;;;;;;;;;;;;;;;;;;;
2022/12/21 12:44:20;;;;;;;0.00;0.00;;;;;;;15.00;100.00;99342.47;6034109;23;20079;-79
2022/12/21 12:47:22;;;;;;;;;;;;;;;;;;;;;
2022/12/21 12:49:57;;;;;;;0.00;0.00;;;;;;;15.03;100.00;99330.81;6178111;23;20092;-80
2022/12/21 12:52:35;;;;;;;;;;;;;;;;;;;;;
2022/12/21 13:02:55;;;;;;;;;;;;;;;;;;;;;
2022/12/21 13:06:05;;;;;;;;;;;;;;;;;;;;;
2022/12/21 13:09:10;;;;;;;0.00;0.00;;;;;;;16.16;94.16;99291.25;6192699;23;20044;-84
2022/12/21 13:15:48;;;;;;;0.00;0.00;;;;;;;18.85;100.00;99295.72;6092830;23;20481;-86
2022/12/21 13:32:18;;;;;;;;;;;;;;;;;;;;;
2022/12/21 13:39:25;;;;;;;;;;;;;;;;;;;;;
2022/12/21 13:53:04;;;;;;;0.00;0.00;;;;;;;26.50;68.39;99278.06;5889993;24;20059;-79
2022/12/21 13:56:34;;;;;;;;;;;;;;;;;;;;;
2022/12/21 14:00:07;;;;;;;;;;;;;;;;;;;;;
2022/12/21 14:03:21;;;;;;;0.00;0.00;;;;;;;20.35;98.12;99284.38;5930649;23;20083;-81
2022/12/21 14:05:55;;;;;;;0.00;0.00;;;;;;;23.05;88.16;99288.66;5922407;24;20021;-78
2022/12/21 14:09:11;;;;;;;;;;;;;;;;;;;;;
2022/12/21 14:12:18;;;;;;;0.00;0.00;;;;;;;24.20;77.21;99264.03;5921545;24;20116;-79
2022/12/21 14:15:32;;;;;;;;;;;;;;;;;;;;;
2022/12/21 14:22:32;;;;;;;;;;;;;;;;;;;;;
2022/12/21 14:25:40;;;;;;;0.00;0.00;;;;;;;20.11;78.99;99290.16;5910175;23;20086;-79
2022/12/21 14:28:33;;;;;;;;;;;;;;;;;;;;;
2022/12/21 14:35:24;;;;;;;0.00;0.00;;;;;;;15.26;100.00;99287.44;6034108;23;20025;-79
2022/12/21 14:42:22;;;;;;;;;;;;;;;;;;;;;
2022/12/21 15:25:06;;;;;;;0.00;0.00;;;;;;;10.75;100.00;99224.38;5736023;25;20959;-80
2022/12/21 15:44:47;;;;;;;0.00;0.00;;;;;;;9.89;100.00;99200.63;5789540;24;20757;-79
2022/12/21 15:54:34;;;;;;;;;;;;;;;;;;;;;
2022/12/21 15:58:27;;;;;;;0.00;0.00;;;;;;;9.08;100.00;99194.88;5884125;24;20085;-80
2022/12/21 16:01:49;;;;;;;0.00;0.00;;;;;;;8.72;100.00;99173.38;5963114;23;20008;-78
2022/12/21 16:05:07;;;;;;;0.00;0.00;;;;;;;8.71;100.00;99207.19;5874596;24;20064;-78
2022/12/21 16:08:22;;;;;;;;;;;;;;;;;;;;;
2022/12/21 16:22:05;;;;;;;;;;;;;;;;;;;;;
2022/12/21 16:36:26;;;;;;;0.00;0.00;;;;;;;7.60;100.00;99206.31;5976741;23;20019;-79
2022/12/21 16:40:26;;;;;;;;;;;;;;;;;;;;;
2022/12/21 16:43:00;;;;;;;;;;;;;;;;;;;;;
2022/12/21 17:28:31;;;;;;;0.00;0.00;;;;;;;7.04;100.00;99193.63;5777237;24;20123;-79
2022/12/21 17:41:57;;;;;;;0.00;0.00;;;;;;;7.77;100.00;99188.84;5828923;24;20118;-78
2022/12/21 18:09:00;;;;;;;0.00;0.00;;;;;;;8.35;100.00;99193.75;6234505;22;20026;-78
2022/12/21 18:11:26;;;;;;;0.00;0.00;;;;;;;8.37;100.00;99191.56;6282315;22;20338;-77
2022/12/21 18:13:51;;;;;;;0.00;0.00;;;;;;;8.31;100.00;99171.72;6314575;22;19991;-82
2022/12/21 18:16:42;;;;;;;0.00;0.00;;;;;;;8.31;100.00;99154.53;6233819;22;20015;-81
2022/12/21 18:29:05;;;;;;;;;;;;;;;;;;;;;
2022/12/21 18:31:50;;;;;;;0.00;0.00;;;;;;;8.16;100.00;99145.41;6302212;22;20091;-77
2022/12/21 18:34:28;;;;;;;;;;;;;;;;;;;;;
2022/12/21 18:36:54;;;;;;;0.00;0.00;;;;;;;8.19;100.00;99158.44;6308145;22;20089;-80
2022/12/21 18:39:47;;;;;;;0.00;0.00;;;;;;;8.16;100.00;99145.41;6259001;22;20022;-78
2022/12/21 18:42:59;;;;;;;0.00;0.00;;;;;;;8.28;100.00;99166.84;6233996;22;20015;-78
2022/12/21 18:45:30;;;;;;;0.00;0.00;;;;;;;8.37;100.00;99167.88;6255905;22;20018;-79
2022/12/21 18:48:06;;;;;;;0.00;0.00;;;;;;;8.27;100.00;99148.88;6280103;22;20007;-79
2022/12/21 18:50:49;;;;;;;0.00;0.00;;;;;;;8.35;100.00;99155.63;6283697;22;20029;-80
2022/12/21 18:53:33;;;;;;;0.00;0.00;;;;;;;8.39;100.00;99162.94;6263005;22;20006;-78
2022/12/21 18:59:16;;;;;;;0.00;0.00;;;;;;;8.26;100.00;99147.22;6285357;22;19999;-77
2022/12/21 19:01:56;;;;;;;0.00;0.00;;;;;;;8.37;100.00;99158.88;6277821;22;20002;-78
2022/12/21 19:05:21;;;;;;;0.00;0.00;;;;;;;8.34;100.00;99151.28;6273144;22;20026;-79
2022/12/21 19:11:07;;;;;;;0.00;0.00;;;;;;;8.29;100.00;99140.41;6280928;22;20086;-78
2022/12/21 19:13:45;;;;;;;;;;;;;;;;;;;;;